sensor_id;sensor_type;location;lat;lon;timestamp;temperature;humidity
12771;DHT22;6449;47.666;9.160;2022-08-03T00:02:52;20.70;99.90
12771;DHT22;6449;47.666;9.160;2022-08-03T00:07:45;20.70;99.90
12771;DHT22;6449;47.666;9.160;2022-08-03T00:12:40;20.60;99.90
12771;DHT22;6449;47.666;9.160;2022-08-03T00:17:33;20.30;99.90
12771;DHT22;6449;47.666;9.160;2022-08-03T00:22:46;20.30;99.90
12771;DHT22;6449;47.666;9.160;2022-08-03T00:27:39;20.20;99.90
12771;DHT22;6449;47.666;9.160;2022-08-03T00:32:32;20.30;99.90
12771;DHT22;6449;47.666;9.160;2022-08-03T00:37:25;20.30;99.90
12771;DHT22;6449;47.666;9.160;2022-08-03T00:42:33;20.30;99.90
12771;DHT22;6449;47.666;9.160;2022-08-03T00:47:27;19.90;99.90
12771;DHT22;6449;47.666;9.160;2022-08-03T00:52:20;20.00;99.90
12771;DHT22;6449;47.666;9.160;2022-08-03T00:57:13;20.20;99.90
12771;DHT22;6449;47.666;9.160;2022-08-03T01:02:08;20.30;99.90
12771;DHT22;6449;47.666;9.160;2022-08-03T01:07:06;20.30;99.90
12771;DHT22;6449;47.666;9.160;2022-08-03T01:12:13;20.00;99.90
12771;DHT22;6449;47.666;9.160;2022-08-03T01:17:19;20.10;99.90
12771;DHT22;6449;47.666;9.160;2022-08-03T01:22:36;19.90;99.90
12771;DHT22;6449;47.666;9.160;2022-08-03T01:27:48;20.00;99.90
12771;DHT22;6449;47.666;9.160;2022-08-03T01:32:54;19.90;99.90
12771;DHT22;6449;47.666;9.160;2022-08-03T01:37:57;19.80;99.90
12771;DHT22;6449;47.666;9.160;2022-08-03T01:42:56;19.80;99.90
12771;DHT22;6449;47.666;9.160;2022-08-03T01:47:54;19.70;99.90
12771;DHT22;6449;47.666;9.160;2022-08-03T01:52:49;19.50;99.90
12771;DHT22;6449;47.666;9.160;2022-08-03T01:57:47;19.50;99.90
12771;DHT22;6449;47.666;9.160;2022-08-03T02:02:58;19.50;99.90
12771;DHT22;6449;47.666;9.160;2022-08-03T02:07:54;19.40;99.90
12771;DHT22;6449;47.666;9.160;2022-08-03T02:12:48;19.50;99.90
12771;DHT22;6449;47.666;9.160;2022-08-03T02:17:45;19.60;99.90
12771;DHT22;6449;47.666;9.160;2022-08-03T02:22:42;19.70;99.90
12771;DHT22;6449;47.666;9.160;2022-08-03T02:27:38;19.60;99.90
12771;DHT22;6449;47.666;9.160;2022-08-03T02:32:36;19.50;99.90
12771;DHT22;6449;47.666;9.160;2022-08-03T02:37:36;19.40;99.90
12771;DHT22;6449;47.666;9.160;2022-08-03T02:42:41;19.40;99.90
12771;DHT22;6449;47.666;9.160;2022-08-03T02:47:38;19.40;99.90
12771;DHT22;6449;47.666;9.160;2022-08-03T02:52:47;19.30;99.90
12771;DHT22;6449;47.666;9.160;2022-08-03T02:57:43;19.50;99.90
12771;DHT22;6449;47.666;9.160;2022-08-03T03:02:39;19.40;99.90
12771;DHT22;6449;47.666;9.160;2022-08-03T03:07:36;19.20;99.90
12771;DHT22;6449;47.666;9.160;2022-08-03T03:12:44;19.10;99.90
12771;DHT22;6449;47.666;9.160;2022-08-03T03:17:41;19.10;99.90
12771;DHT22;6449;47.666;9.160;2022-08-03T03:22:37;19.10;99.90
12771;DHT22;6449;47.666;9.160;2022-08-03T03:27:36;19.10;99.90
12771;DHT22;6449;47.666;9.160;2022-08-03T03:32:31;19.00;99.90
12771;DHT22;6449;47.666;9.160;2022-08-03T03:37:25;18.90;99.90
12771;DHT22;6449;47.666;9.160;2022-08-03T03:42:19;18.80;99.90
12771;DHT22;6449;47.666;9.160;2022-08-03T03:47:12;18.70;99.90
12771;DHT22;6449;47.666;9.160;2022-08-03T03:52:09;18.60;99.90
12771;DHT22;6449;47.666;9.160;2022-08-03T03:57:03;18.70;99.90
12771;DHT22;6449;47.666;9.160;2022-08-03T04:01:56;18.80;99.90
12771;DHT22;6449;47.666;9.160;2022-08-03T04:06:50;18.70;99.90
12771;DHT22;6449;47.666;9.160;2022-08-03T04:12:04;18.80;99.90
12771;DHT22;6449;47.666;9.160;2022-08-03T04:17:01;18.70;99.90
12771;DHT22;6449;47.666;9.160;2022-08-03T04:22:00;18.80;99.90
12771;DHT22;6449;47.666;9.160;2022-08-03T04:26:58;18.80;99.90
12771;DHT22;6449;47.666;9.160;2022-08-03T04:31:57;18.90;99.90
12771;DHT22;6449;47.666;9.160;2022-08-03T04:36:58;18.80;99.90
12771;DHT22;6449;47.666;9.160;2022-08-03T04:41:55;18.90;99.90
12771;DHT22;6449;47.666;9.160;2022-08-03T04:47:00;18.90;99.90
12771;DHT22;6449;47.666;9.160;2022-08-03T04:51:54;19.00;99.90
12771;DHT22;6449;47.666;9.160;2022-08-03T04:56:48;19.00;99.90
12771;DHT22;6449;47.666;9.160;2022-08-03T05:01:42;19.20;99.90
12771;DHT22;6449;47.666;9.160;2022-08-03T05:06:37;19.30;99.90
12771;DHT22;6449;47.666;9.160;2022-08-03T05:11:39;19.50;99.90
12771;DHT22;6449;47.666;9.160;2022-08-03T05:16:32;19.70;99.90
12771;DHT22;6449;47.666;9.160;2022-08-03T05:21:25;20.00;99.90
12771;DHT22;6449;47.666;9.160;2022-08-03T05:26:40;20.10;99.90
12771;DHT22;6449;47.666;9.160;2022-08-03T05:31:33;20.20;99.90
12771;DHT22;6449;47.666;9.160;2022-08-03T05:36:27;20.30;99.90
12771;DHT22;6449;47.666;9.160;2022-08-03T05:41:20;20.30;99.90
12771;DHT22;6449;47.666;9.160;2022-08-03T05:46:29;20.50;99.90
12771;DHT22;6449;47.666;9.160;2022-08-03T05:51:22;20.70;99.90
12771;DHT22;6449;47.666;9.160;2022-08-03T05:56:16;20.80;99.90
12771;DHT22;6449;47.666;9.160;2022-08-03T06:01:09;20.80;99.90
12771;DHT22;6449;47.666;9.160;2022-08-03T06:06:04;20.90;99.90
12771;DHT22;6449;47.666;9.160;2022-08-03T06:10:58;21.00;99.90
12771;DHT22;6449;47.666;9.160;2022-08-03T06:15:51;21.00;99.90
12771;DHT22;6449;47.666;9.160;2022-08-03T06:20:45;21.00;99.90
12771;DHT22;6449;47.666;9.160;2022-08-03T06:25:41;20.90;99.90
12771;DHT22;6449;47.666;9.160;2022-08-03T06:30:35;21.00;99.90
12771;DHT22;6449;47.666;9.160;2022-08-03T06:35:28;21.20;99.90
12771;DHT22;6449;47.666;9.160;2022-08-03T06:40:22;21.20;99.90
12771;DHT22;6449;47.666;9.160;2022-08-03T06:45:21;21.30;99.90
12771;DHT22;6449;47.666;9.160;2022-08-03T06:50:15;21.30;99.90
12771;DHT22;6449;47.666;9.160;2022-08-03T06:55:16;21.40;99.90
12771;DHT22;6449;47.666;9.160;2022-08-03T07:00:11;21.30;99.90
12771;DHT22;6449;47.666;9.160;2022-08-03T07:05:08;21.30;99.90
12771;DHT22;6449;47.666;9.160;2022-08-03T07:10:02;21.30;99.90
12771;DHT22;6449;47.666;9.160;2022-08-03T07:14:58;21.40;99.90
12771;DHT22;6449;47.666;9.160;2022-08-03T07:19:54;21.60;99.90
12771;DHT22;6449;47.666;9.160;2022-08-03T07:24:49;21.80;99.90
12771;DHT22;6449;47.666;9.160;2022-08-03T07:29:42;21.90;99.90
12771;DHT22;6449;47.666;9.160;2022-08-03T07:34:35;22.20;99.90
12771;DHT22;6449;47.666;9.160;2022-08-03T07:39:29;22.30;99.90
12771;DHT22;6449;47.666;9.160;2022-08-03T07:44:24;22.70;99.90
12771;DHT22;6449;47.666;9.160;2022-08-03T07:49:17;23.00;99.90
12771;DHT22;6449;47.666;9.160;2022-08-03T07:54:11;23.30;99.90
12771;DHT22;6449;47.666;9.160;2022-08-03T07:59:05;23.60;99.90
12771;DHT22;6449;47.666;9.160;2022-08-03T08:04:00;23.90;99.90
12771;DHT22;6449;47.666;9.160;2022-08-03T08:08:53;24.00;99.90
12771;DHT22;6449;47.666;9.160;2022-08-03T08:13:50;24.10;99.90
12771;DHT22;6449;47.666;9.160;2022-08-03T08:18:45;24.30;99.90
12771;DHT22;6449;47.666;9.160;2022-08-03T08:23:39;24.40;99.90
12771;DHT22;6449;47.666;9.160;2022-08-03T08:28:45;24.60;99.90
12771;DHT22;6449;47.666;9.160;2022-08-03T08:33:39;24.90;99.90
12771;DHT22;6449;47.666;9.160;2022-08-03T08:38:53;25.20;99.90
12771;DHT22;6449;47.666;9.160;2022-08-03T08:43:47;25.30;99.90
12771;DHT22;6449;47.666;9.160;2022-08-03T08:48:41;25.50;99.90
12771;DHT22;6449;47.666;9.160;2022-08-03T08:53:37;25.50;99.90
12771;DHT22;6449;47.666;9.160;2022-08-03T08:58:43;25.70;99.90
12771;DHT22;6449;47.666;9.160;2022-08-03T09:03:42;25.80;99.90
12771;DHT22;6449;47.666;9.160;2022-08-03T09:08:36;26.00;99.90
12771;DHT22;6449;47.666;9.160;2022-08-03T09:13:30;26.20;99.90
12771;DHT22;6449;47.666;9.160;2022-08-03T09:18:28;26.40;99.90
12771;DHT22;6449;47.666;9.160;2022-08-03T09:23:23;26.50;99.90
12771;DHT22;6449;47.666;9.160;2022-08-03T09:28:37;26.60;99.90
12771;DHT22;6449;47.666;9.160;2022-08-03T09:33:53;26.80;99.90
12771;DHT22;6449;47.666;9.160;2022-08-03T09:39:00;26.90;99.90
12771;DHT22;6449;47.666;9.160;2022-08-03T09:43:56;27.10;99.90
12771;DHT22;6449;47.666;9.160;2022-08-03T09:48:49;27.10;99.90
12771;DHT22;6449;47.666;9.160;2022-08-03T09:53:45;27.30;99.90
12771;DHT22;6449;47.666;9.160;2022-08-03T09:58:50;27.60;99.90
12771;DHT22;6449;47.666;9.160;2022-08-03T10:03:58;27.80;99.90
12771;DHT22;6449;47.666;9.160;2022-08-03T10:09:04;28.00;99.90
12771;DHT22;6449;47.666;9.160;2022-08-03T10:13:59;28.10;99.90
12771;DHT22;6449;47.666;9.160;2022-08-03T10:18:55;28.10;99.90
12771;DHT22;6449;47.666;9.160;2022-08-03T10:23:50;28.20;99.90
12771;DHT22;6449;47.666;9.160;2022-08-03T10:28:49;28.20;99.90
12771;DHT22;6449;47.666;9.160;2022-08-03T10:33:49;28.30;99.90
12771;DHT22;6449;47.666;9.160;2022-08-03T10:38:46;28.50;99.90
12771;DHT22;6449;47.666;9.160;2022-08-03T10:43:49;28.60;99.90
12771;DHT22;6449;47.666;9.160;2022-08-03T10:48:49;28.70;99.90
12771;DHT22;6449;47.666;9.160;2022-08-03T10:53:44;28.70;99.90
12771;DHT22;6449;47.666;9.160;2022-08-03T10:58:50;28.80;99.90
12771;DHT22;6449;47.666;9.160;2022-08-03T11:04:13;28.90;99.90
12771;DHT22;6449;47.666;9.160;2022-08-03T11:09:16;29.00;99.90
12771;DHT22;6449;47.666;9.160;2022-08-03T11:14:14;29.10;99.90
12771;DHT22;6449;47.666;9.160;2022-08-03T11:19:11;29.20;99.90
12771;DHT22;6449;47.666;9.160;2022-08-03T11:24:06;29.30;99.90
12771;DHT22;6449;47.666;9.160;2022-08-03T11:29:29;29.30;99.90
12771;DHT22;6449;47.666;9.160;2022-08-03T11:34:23;29.50;99.90
12771;DHT22;6449;47.666;9.160;2022-08-03T11:39:17;29.80;99.90
12771;DHT22;6449;47.666;9.160;2022-08-03T11:44:40;29.80;99.90
12771;DHT22;6449;47.666;9.160;2022-08-03T11:49:38;29.70;99.90
12771;DHT22;6449;47.666;9.160;2022-08-03T11:54:32;29.80;99.90
12771;DHT22;6449;47.666;9.160;2022-08-03T11:59:31;29.80;99.90
12771;DHT22;6449;47.666;9.160;2022-08-03T12:04:26;29.60;99.90
12771;DHT22;6449;47.666;9.160;2022-08-03T12:09:20;29.60;99.90
12771;DHT22;6449;47.666;9.160;2022-08-03T12:14:16;29.70;99.90
12771;DHT22;6449;47.666;9.160;2022-08-03T12:19:42;29.60;99.90
12771;DHT22;6449;47.666;9.160;2022-08-03T12:24:40;29.50;99.90
12771;DHT22;6449;47.666;9.160;2022-08-03T12:29:34;29.60;99.50
12771;DHT22;6449;47.666;9.160;2022-08-03T12:34:47;29.60;99.90
12771;DHT22;6449;47.666;9.160;2022-08-03T12:39:41;29.60;99.70
12771;DHT22;6449;47.666;9.160;2022-08-03T12:44:54;29.70;99.70
12771;DHT22;6449;47.666;9.160;2022-08-03T12:49:50;29.80;98.50
12771;DHT22;6449;47.666;9.160;2022-08-03T12:54:53;29.80;93.70
12771;DHT22;6449;47.666;9.160;2022-08-03T12:59:47;29.80;93.60
12771;DHT22;6449;47.666;9.160;2022-08-03T13:04:45;29.80;94.40
12771;DHT22;6449;47.666;9.160;2022-08-03T13:09:42;29.80;95.20
12771;DHT22;6449;47.666;9.160;2022-08-03T13:14:36;29.80;96.10
12771;DHT22;6449;47.666;9.160;2022-08-03T13:19:30;29.80;97.70
12771;DHT22;6449;47.666;9.160;2022-08-03T13:24:24;29.80;97.50
12771;DHT22;6449;47.666;9.160;2022-08-03T13:29:18;29.80;98.30
12771;DHT22;6449;47.666;9.160;2022-08-03T13:34:12;29.70;98.30
12771;DHT22;6449;47.666;9.160;2022-08-03T13:39:05;29.70;98.30
12771;DHT22;6449;47.666;9.160;2022-08-03T13:43:59;29.70;98.60
12771;DHT22;6449;47.666;9.160;2022-08-03T13:49:14;29.70;99.90
12771;DHT22;6449;47.666;9.160;2022-08-03T13:54:08;29.70;99.20
12771;DHT22;6449;47.666;9.160;2022-08-03T13:59:01;29.80;97.90
12771;DHT22;6449;47.666;9.160;2022-08-03T14:03:54;29.70;97.70
12771;DHT22;6449;47.666;9.160;2022-08-03T14:08:50;29.70;98.30
12771;DHT22;6449;47.666;9.160;2022-08-03T14:13:47;29.70;98.20
12771;DHT22;6449;47.666;9.160;2022-08-03T14:18:40;29.70;97.00
12771;DHT22;6449;47.666;9.160;2022-08-03T14:23:35;29.70;99.90
12771;DHT22;6449;47.666;9.160;2022-08-03T14:28:30;29.70;99.50
12771;DHT22;6449;47.666;9.160;2022-08-03T14:33:24;29.70;99.20
12771;DHT22;6449;47.666;9.160;2022-08-03T14:38:19;29.70;99.90
12771;DHT22;6449;47.666;9.160;2022-08-03T14:43:14;29.60;98.20
12771;DHT22;6449;47.666;9.160;2022-08-03T14:48:10;29.60;99.90
12771;DHT22;6449;47.666;9.160;2022-08-03T14:53:24;29.60;99.90
12771;DHT22;6449;47.666;9.160;2022-08-03T14:58:17;29.60;99.90
12771;DHT22;6449;47.666;9.160;2022-08-03T15:03:13;29.60;99.90
12771;DHT22;6449;47.666;9.160;2022-08-03T15:08:07;29.60;99.90
12771;DHT22;6449;47.666;9.160;2022-08-03T15:13:01;29.60;99.90
12771;DHT22;6449;47.666;9.160;2022-08-03T15:17:54;29.60;99.90
12771;DHT22;6449;47.666;9.160;2022-08-03T15:22:52;29.50;99.90
12771;DHT22;6449;47.666;9.160;2022-08-03T15:27:54;29.50;98.90
12771;DHT22;6449;47.666;9.160;2022-08-03T15:32:55;29.50;99.00
12771;DHT22;6449;47.666;9.160;2022-08-03T15:37:48;29.60;98.30
12771;DHT22;6449;47.666;9.160;2022-08-03T15:42:43;29.60;99.10
12771;DHT22;6449;47.666;9.160;2022-08-03T15:47:36;29.60;98.70
12771;DHT22;6449;47.666;9.160;2022-08-03T15:52:29;29.60;99.60
12771;DHT22;6449;47.666;9.160;2022-08-03T15:57:23;29.60;99.90
12771;DHT22;6449;47.666;9.160;2022-08-03T16:02:18;29.50;99.90
12771;DHT22;6449;47.666;9.160;2022-08-03T16:07:11;29.50;99.90
12771;DHT22;6449;47.666;9.160;2022-08-03T16:12:07;29.50;99.90
12771;DHT22;6449;47.666;9.160;2022-08-03T16:17:07;29.40;99.90
12771;DHT22;6449;47.666;9.160;2022-08-03T16:22:01;29.40;99.90
12771;DHT22;6449;47.666;9.160;2022-08-03T16:26:55;29.40;99.90
12771;DHT22;6449;47.666;9.160;2022-08-03T16:31:51;29.30;99.90
12771;DHT22;6449;47.666;9.160;2022-08-03T16:36:44;29.30;99.90
12771;DHT22;6449;47.666;9.160;2022-08-03T16:41:39;29.30;99.90
12771;DHT22;6449;47.666;9.160;2022-08-03T16:46:51;29.20;99.90
12771;DHT22;6449;47.666;9.160;2022-08-03T16:51:44;29.00;99.90
12771;DHT22;6449;47.666;9.160;2022-08-03T16:56:42;29.00;99.90
12771;DHT22;6449;47.666;9.160;2022-08-03T17:01:39;29.10;99.90
12771;DHT22;6449;47.666;9.160;2022-08-03T17:06:39;29.20;99.90
12771;DHT22;6449;47.666;9.160;2022-08-03T17:11:39;29.20;99.90
12771;DHT22;6449;47.666;9.160;2022-08-03T17:16:38;29.20;99.90
12771;DHT22;6449;47.666;9.160;2022-08-03T17:21:48;29.20;99.90
12771;DHT22;6449;47.666;9.160;2022-08-03T17:26:50;29.30;99.90
12771;DHT22;6449;47.666;9.160;2022-08-03T17:31:46;29.20;99.90
12771;DHT22;6449;47.666;9.160;2022-08-03T17:36:43;29.10;99.90
12771;DHT22;6449;47.666;9.160;2022-08-03T17:41:57;29.10;99.90
12771;DHT22;6449;47.666;9.160;2022-08-03T17:46:52;29.00;99.90
12771;DHT22;6449;47.666;9.160;2022-08-03T17:51:50;28.90;99.90
12771;DHT22;6449;47.666;9.160;2022-08-03T17:57:01;28.80;99.90
12771;DHT22;6449;47.666;9.160;2022-08-03T18:02:31;28.70;99.90
12771;DHT22;6449;47.666;9.160;2022-08-03T18:07:49;28.50;99.90
12771;DHT22;6449;47.666;9.160;2022-08-03T18:12:57;28.40;99.90
12771;DHT22;6449;47.666;9.160;2022-08-03T18:18:04;28.40;99.90
12771;DHT22;6449;47.666;9.160;2022-08-03T18:23:02;28.30;99.90
12771;DHT22;6449;47.666;9.160;2022-08-03T18:27:58;28.30;99.90
12771;DHT22;6449;47.666;9.160;2022-08-03T18:32:52;28.20;99.90
12771;DHT22;6449;47.666;9.160;2022-08-03T18:37:52;28.00;99.90
12771;DHT22;6449;47.666;9.160;2022-08-03T18:42:51;27.70;99.90
12771;DHT22;6449;47.666;9.160;2022-08-03T18:47:54;27.50;99.90
12771;DHT22;6449;47.666;9.160;2022-08-03T18:53:02;27.30;99.90
12771;DHT22;6449;47.666;9.160;2022-08-03T18:58:32;27.00;99.90
12771;DHT22;6449;47.666;9.160;2022-08-03T19:03:34;26.90;99.90
12771;DHT22;6449;47.666;9.160;2022-08-03T19:08:44;26.80;99.90
12771;DHT22;6449;47.666;9.160;2022-08-03T19:13:45;26.70;99.90
12771;DHT22;6449;47.666;9.160;2022-08-03T19:18:46;26.50;99.90
12771;DHT22;6449;47.666;9.160;2022-08-03T19:23:44;26.40;99.90
12771;DHT22;6449;47.666;9.160;2022-08-03T19:28:39;26.40;99.90
12771;DHT22;6449;47.666;9.160;2022-08-03T19:33:34;26.20;99.90
12771;DHT22;6449;47.666;9.160;2022-08-03T19:38:51;25.90;99.90
12771;DHT22;6449;47.666;9.160;2022-08-03T19:43:48;25.80;99.90
12771;DHT22;6449;47.666;9.160;2022-08-03T19:48:53;25.80;99.90
12771;DHT22;6449;47.666;9.160;2022-08-03T19:53:52;25.80;99.90
12771;DHT22;6449;47.666;9.160;2022-08-03T19:58:46;25.80;99.90
12771;DHT22;6449;47.666;9.160;2022-08-03T20:03:44;25.70;99.90
12771;DHT22;6449;47.666;9.160;2022-08-03T20:08:40;25.70;99.90
12771;DHT22;6449;47.666;9.160;2022-08-03T20:13:36;25.70;99.90
12771;DHT22;6449;47.666;9.160;2022-08-03T20:18:31;25.30;99.90
12771;DHT22;6449;47.666;9.160;2022-08-03T20:23:32;25.30;99.90
12771;DHT22;6449;47.666;9.160;2022-08-03T20:28:52;25.20;99.90
12771;DHT22;6449;47.666;9.160;2022-08-03T20:34:00;25.00;99.90
12771;DHT22;6449;47.666;9.160;2022-08-03T20:38:53;24.80;99.90
12771;DHT22;6449;47.666;9.160;2022-08-03T20:43:49;24.80;99.90
12771;DHT22;6449;47.666;9.160;2022-08-03T20:48:44;24.80;99.90
12771;DHT22;6449;47.666;9.160;2022-08-03T20:53:39;24.80;99.90
12771;DHT22;6449;47.666;9.160;2022-08-03T20:58:54;24.70;99.90
12771;DHT22;6449;47.666;9.160;2022-08-03T21:03:50;24.60;99.90
12771;DHT22;6449;47.666;9.160;2022-08-03T21:08:48;24.40;99.90
12771;DHT22;6449;47.666;9.160;2022-08-03T21:13:51;24.40;99.90
12771;DHT22;6449;47.666;9.160;2022-08-03T21:18:52;24.40;99.90
12771;DHT22;6449;47.666;9.160;2022-08-03T21:23:50;24.30;99.90
12771;DHT22;6449;47.666;9.160;2022-08-03T21:28:45;24.20;99.90
12771;DHT22;6449;47.666;9.160;2022-08-03T21:33:41;24.20;99.90
12771;DHT22;6449;47.666;9.160;2022-08-03T21:38:39;24.00;99.90
12771;DHT22;6449;47.666;9.160;2022-08-03T21:43:38;24.00;99.90
12771;DHT22;6449;47.666;9.160;2022-08-03T21:48:35;23.80;99.90
12771;DHT22;6449;47.666;9.160;2022-08-03T21:53:33;23.70;99.90
12771;DHT22;6449;47.666;9.160;2022-08-03T21:58:49;23.80;99.90
12771;DHT22;6449;47.666;9.160;2022-08-03T22:03:45;23.80;99.90
12771;DHT22;6449;47.666;9.160;2022-08-03T22:08:46;23.80;99.90
12771;DHT22;6449;47.666;9.160;2022-08-03T22:13:41;23.60;99.90
12771;DHT22;6449;47.666;9.160;2022-08-03T22:18:35;23.50;99.90
12771;DHT22;6449;47.666;9.160;2022-08-03T22:23:30;23.60;99.90
12771;DHT22;6449;47.666;9.160;2022-08-03T22:28:30;23.50;99.90
12771;DHT22;6449;47.666;9.160;2022-08-03T22:33:25;23.20;99.90
12771;DHT22;6449;47.666;9.160;2022-08-03T22:38:19;23.10;99.90
12771;DHT22;6449;47.666;9.160;2022-08-03T22:43:13;23.10;99.90
12771;DHT22;6449;47.666;9.160;2022-08-03T22:48:09;23.00;99.90
12771;DHT22;6449;47.666;9.160;2022-08-03T22:53:05;23.10;99.90
12771;DHT22;6449;47.666;9.160;2022-08-03T22:57:59;23.20;99.90
12771;DHT22;6449;47.666;9.160;2022-08-03T23:03:03;23.10;99.90
12771;DHT22;6449;47.666;9.160;2022-08-03T23:08:03;22.80;99.90
12771;DHT22;6449;47.666;9.160;2022-08-03T23:13:07;22.80;99.90
12771;DHT22;6449;47.666;9.160;2022-08-03T23:18:06;22.80;99.90
12771;DHT22;6449;47.666;9.160;2022-08-03T23:23:05;22.50;99.90
12771;DHT22;6449;47.666;9.160;2022-08-03T23:28:13;22.40;99.90
12771;DHT22;6449;47.666;9.160;2022-08-03T23:33:09;22.40;99.90
12771;DHT22;6449;47.666;9.160;2022-08-03T23:38:07;22.20;99.90
12771;DHT22;6449;47.666;9.160;2022-08-03T23:43:14;22.00;99.90
12771;DHT22;6449;47.666;9.160;2022-08-03T23:48:28;22.10;99.90
12771;DHT22;6449;47.666;9.160;2022-08-03T23:53:27;22.10;99.90
12771;DHT22;6449;47.666;9.160;2022-08-03T23:58:41;21.90;99.90
